Ana Sayfa
METAR-TAF:

METAR-TAF

Havaalanları :

East Jakarta, Endonezya

Enlem: 06-15-59S, Boylam: 106-53-28E, yükseklik: 25 m

METAR: eksik

Saat: 04:11 (21:11 UTC)

Tahmin

Rapor saat 17:00 UTC de 4 saat ve 11 dakika önce yapıldı.
Ayın 22'si saat 18 UTC'den ayın 23'si saat 18 UTC'ye kadar geçerli Tahmin
Rüzgar kuzeydan kt
Görüş mesafesi: 5000 m
2000 ft yükseklikte az bulutlu
Toz Pusu
Dönüşüyor
ayın 23'si saat 02 UTC'den ayın 23'si saat 04 UTC'ye kadar
Rüzgar doğu/güneydoğudan 8 kt
Görüş mesafesi: 7000 m

TAF: WIHH 221700Z 2218/2318 00000KT 5000 HZ FEW020 BECMG 2302/2304 12008KT 7000

4.000'den fazla havaalanı için hava durumu gözlemleri ve tahminleri (METAR ve TAF raporları).

Kullanılabilir istasyonlar harita üzerinde sarı ve kırmızı noktalarla gösterilir.

İstasyonun adını görmek için fareyi noktanın üzerinde gezdirin.

Sonrasında hava gözlem ve tahminlerini görmek için tıklayın.

Haritayı değiştirmek için: yaklaştırmak için siyah artı işaretli yeşil düğmeye ve uzaklaştırmak için de eksi işaretli düğmeye hızla tıklayın; bitişik haritalar için yeşil okları kullanın.


METAR-TAF: